createdAt,value
2023-05-10T00:00:40.712Z,88.37
2023-05-10T00:03:11.430Z,88.29
2023-05-10T00:05:38.405Z,87.71
2023-05-10T00:08:05.435Z,87.93
2023-05-10T00:10:32.379Z,88.20
2023-05-10T00:12:59.248Z,88.11
2023-05-10T00:15:26.278Z,87.96
2023-05-10T00:17:53.055Z,88.29
2023-05-10T00:20:20.256Z,87.87
2023-05-10T00:22:47.099Z,89.09
2023-05-10T00:25:13.940Z,89.22
2023-05-10T00:27:40.784Z,90.48
2023-05-10T00:30:08.244Z,90.54
2023-05-10T00:32:35.739Z,90.89
2023-05-10T00:35:02.728Z,91.08
2023-05-10T00:37:29.520Z,90.85
2023-05-10T00:39:56.537Z,90.92
2023-05-10T00:42:23.373Z,90.53
2023-05-10T00:44:53.007Z,89.27
2023-05-10T00:47:19.972Z,89.04
2023-05-10T00:49:47.078Z,89.20
2023-05-10T00:52:14.134Z,89.53
2023-05-10T00:54:42.399Z,89.70
2023-05-10T00:57:09.659Z,89.67
2023-05-10T00:59:36.694Z,90.49
2023-05-10T01:02:03.689Z,90.94
2023-05-10T01:04:33.582Z,91.21
2023-05-10T01:07:00.504Z,91.29
2023-05-10T01:09:28.266Z,91.16
2023-05-10T01:11:55.968Z,91.01
2023-05-10T01:14:23.692Z,90.86
2023-05-10T01:16:50.844Z,91.12
2023-05-10T01:19:22.502Z,91.39
2023-05-10T01:22:28.295Z,91.36
2023-05-10T01:25:10.573Z,91.20
2023-05-10T01:27:37.401Z,91.04
2023-05-10T01:30:28.918Z,90.12
2023-05-10T01:33:05.936Z,89.90
2023-05-10T01:35:54.043Z,90.33
2023-05-10T01:38:40.544Z,89.96
2023-05-10T01:41:19.473Z,90.56
2023-05-10T01:43:53.484Z,90.27
2023-05-10T01:46:29.473Z,89.84
2023-05-10T01:48:59.453Z,90.05
2023-05-10T01:51:36.022Z,89.50
2023-05-10T01:54:05.318Z,89.79
2023-05-10T01:56:35.894Z,88.96
2023-05-10T01:59:07.505Z,88.53
2023-05-10T02:01:37.525Z,89.41
2023-05-10T02:04:06.916Z,91.02
2023-05-10T02:06:34.889Z,90.66
2023-05-10T02:09:03.575Z,91.23
2023-05-10T02:11:32.773Z,91.90
2023-05-10T02:14:00.845Z,91.52
2023-05-10T02:16:31.414Z,92.29
2023-05-10T02:19:00.063Z,93.01
2023-05-10T02:21:28.542Z,93.83
2023-05-10T02:23:56.212Z,94.31
2023-05-10T02:26:25.712Z,93.83
2023-05-10T02:28:53.776Z,92.97
2023-05-10T02:31:22.328Z,91.90
2023-05-10T02:33:50.431Z,92.90
2023-05-10T02:36:20.756Z,92.74
2023-05-10T02:38:50.050Z,92.89
2023-05-10T02:41:17.327Z,92.74
2023-05-10T02:43:45.973Z,92.64
2023-05-10T02:46:13.043Z,93.38
2023-05-10T02:48:40.601Z,92.88
2023-05-10T02:51:08.678Z,92.45
2023-05-10T02:53:38.998Z,91.93
2023-05-10T02:56:13.974Z,91.81
2023-05-10T02:58:41.081Z,92.17
2023-05-10T03:01:11.023Z,91.89
2023-05-10T03:03:38.979Z,92.21
2023-05-10T03:06:05.904Z,92.18
2023-05-10T03:08:32.753Z,91.92
2023-05-10T03:11:27.650Z,91.56
2023-05-10T03:14:11.711Z,90.84
2023-05-10T03:16:52.869Z,90.41
2023-05-10T03:19:40.606Z,90.13
2023-05-10T03:22:11.896Z,89.70
2023-05-10T03:24:41.865Z,89.25
2023-05-10T03:27:10.038Z,89.96
2023-05-10T03:29:38.723Z,90.12
2023-05-10T03:32:05.665Z,87.78
2023-05-10T03:34:32.646Z,85.78
2023-05-10T03:36:59.762Z,83.51
2023-05-10T03:39:28.559Z,79.10
2023-05-10T03:41:58.161Z,78.10
2023-05-10T03:44:24.999Z,77.29
2023-05-10T03:46:52.001Z,73.91
2023-05-10T03:49:19.091Z,71.20
2023-05-10T03:51:45.936Z,69.05
2023-05-10T03:54:12.913Z,64.79
2023-05-10T03:56:39.826Z,64.04
2023-05-10T03:59:09.962Z,61.78
2023-05-10T04:01:36.943Z,60.36
2023-05-10T04:04:04.447Z,59.60
2023-05-10T04:06:32.495Z,57.96
2023-05-10T04:09:05.004Z,56.55
2023-05-10T04:11:31.835Z,55.46
2023-05-10T04:13:58.586Z,53.42
2023-05-10T04:16:25.547Z,51.88
2023-05-10T04:18:52.475Z,50.56
2023-05-10T04:21:19.413Z,50.06
2023-05-10T04:23:46.252Z,49.71
2023-05-10T04:26:13.710Z,51.44
2023-05-10T04:28:40.556Z,53.14
2023-05-10T04:31:09.220Z,53.52
2023-05-10T04:33:36.898Z,54.85
2023-05-10T04:36:04.512Z,56.39
2023-05-10T04:38:31.729Z,58.81
2023-05-10T04:41:07.064Z,59.92
2023-05-10T04:43:34.304Z,61.54
2023-05-10T04:46:01.478Z,61.46
2023-05-10T04:48:28.716Z,61.86
2023-05-10T04:50:55.749Z,59.68
2023-05-10T04:53:23.023Z,58.32
2023-05-10T04:55:49.960Z,57.07
2023-05-10T04:58:16.790Z,54.37
2023-05-10T05:00:44.517Z,56.00
2023-05-10T05:03:11.490Z,55.65
2023-05-10T05:05:38.441Z,54.83
2023-05-10T05:08:05.487Z,55.34
2023-05-10T05:10:32.332Z,54.61
2023-05-10T05:12:59.230Z,55.47
2023-05-10T05:15:26.121Z,54.84
2023-05-10T05:17:53.069Z,55.66
2023-05-10T05:20:20.086Z,55.97
2023-05-10T05:22:46.950Z,56.97
2023-05-10T05:25:14.005Z,55.66
2023-05-10T05:27:40.838Z,54.83
2023-05-10T05:30:08.404Z,53.55
2023-05-10T05:32:35.286Z,51.50
2023-05-10T05:35:02.088Z,51.02
2023-05-10T05:37:28.851Z,49.42
2023-05-10T05:39:55.668Z,48.15
2023-05-10T05:42:22.403Z,46.66
2023-05-10T05:44:49.259Z,47.14
2023-05-10T05:47:16.091Z,45.85
2023-05-10T05:49:46.205Z,45.22
2023-05-10T05:52:13.255Z,45.16
2023-05-10T05:54:40.511Z,46.42
2023-05-10T05:57:08.067Z,44.12
2023-05-10T05:59:35.009Z,44.09
2023-05-10T06:02:01.803Z,42.09
2023-05-10T06:04:28.834Z,42.72
2023-05-10T06:06:55.754Z,42.44
2023-05-10T06:09:24.330Z,41.45
2023-05-10T06:11:51.063Z,41.93
2023-05-10T06:14:17.921Z,41.20
2023-05-10T06:16:44.770Z,40.70
2023-05-10T06:19:11.594Z,39.35
2023-05-10T06:21:38.541Z,38.02
2023-05-10T06:24:07.237Z,37.27
2023-05-10T06:26:34.377Z,41.09
2023-05-10T06:29:01.809Z,41.23
2023-05-10T06:31:28.695Z,38.73
2023-05-10T06:33:56.764Z,38.10
2023-05-10T06:36:25.528Z,37.24
2023-05-10T06:38:52.383Z,37.45
2023-05-10T06:41:19.218Z,36.74
2023-05-10T06:43:46.055Z,37.07
2023-05-10T06:46:12.905Z,36.95
2023-05-10T06:48:39.657Z,36.63
2023-05-10T06:51:06.689Z,37.04
2023-05-10T06:53:33.740Z,38.02
2023-05-10T06:56:00.896Z,37.15
2023-05-10T06:58:28.390Z,37.21
2023-05-10T07:00:55.226Z,34.47
2023-05-10T07:03:22.173Z,32.19
2023-05-10T07:05:49.083Z,33.38
2023-05-10T07:08:15.755Z,32.38
2023-05-10T07:10:43.476Z,32.19
2023-05-10T07:13:11.191Z,32.37
2023-05-10T07:15:38.073Z,31.93
2023-05-10T07:18:06.931Z,33.23
2023-05-10T07:20:33.914Z,34.08
2023-05-10T07:23:01.373Z,32.51
2023-05-10T07:25:28.213Z,32.42
2023-05-10T07:27:55.061Z,31.72
2023-05-10T07:30:22.048Z,31.86
2023-05-10T07:32:48.878Z,29.41
2023-05-10T07:35:16.162Z,31.29
2023-05-10T07:37:43.249Z,30.42
2023-05-10T07:40:10.703Z,32.18
2023-05-10T07:42:37.542Z,31.76
2023-05-10T07:45:05.000Z,32.04
2023-05-10T07:47:31.746Z,33.12
2023-05-10T07:49:58.679Z,32.13
2023-05-10T07:52:25.626Z,32.72
2023-05-10T07:54:52.463Z,31.00
2023-05-10T07:57:19.327Z,34.39
2023-05-10T07:59:46.159Z,31.91
2023-05-10T08:02:13.064Z,31.34
2023-05-10T08:04:40.067Z,31.76
2023-05-10T08:07:07.088Z,31.17
2023-05-10T08:09:34.047Z,33.17
2023-05-10T08:12:00.888Z,32.74
2023-05-10T08:14:29.352Z,31.77
2023-05-10T08:16:56.812Z,32.31
2023-05-10T08:19:24.177Z,33.11
2023-05-10T08:21:51.517Z,32.23
2023-05-10T08:24:18.361Z,30.66
2023-05-10T08:26:45.308Z,31.23
2023-05-10T08:29:12.149Z,29.78
2023-05-10T08:31:38.884Z,29.25
2023-05-10T08:34:05.933Z,30.69
2023-05-10T08:36:32.887Z,32.21
2023-05-10T08:38:59.846Z,31.82
2023-05-10T08:41:27.222Z,31.90
2023-05-10T08:43:55.043Z,32.80
2023-05-10T08:46:23.476Z,33.66
2023-05-10T08:48:52.733Z,33.27
2023-05-10T08:51:24.381Z,32.92
2023-05-10T08:53:52.045Z,30.03
2023-05-10T08:56:20.756Z,31.22
2023-05-10T08:58:47.893Z,32.29
2023-05-10T09:01:17.443Z,33.53
2023-05-10T09:03:46.415Z,35.43
2023-05-10T09:06:14.240Z,37.56
2023-05-10T09:08:43.347Z,39.10
2023-05-10T09:11:11.412Z,39.86
2023-05-10T09:13:38.657Z,38.52
2023-05-10T09:16:17.510Z,38.17
2023-05-10T09:18:47.749Z,36.60
2023-05-10T09:21:14.651Z,37.11
2023-05-10T09:23:48.427Z,36.18
2023-05-10T09:26:16.633Z,34.81
2023-05-10T09:28:55.838Z,34.10
2023-05-10T09:31:24.225Z,33.76
2023-05-10T09:33:51.804Z,32.91
2023-05-10T09:36:18.952Z,32.24
2023-05-10T09:38:47.438Z,31.93
2023-05-10T09:41:23.941Z,31.29
2023-05-10T09:43:55.653Z,31.42
2023-05-10T09:46:26.637Z,29.38
2023-05-10T09:48:53.435Z,30.45
2023-05-10T09:51:22.021Z,29.87
2023-05-10T09:54:08.997Z,29.08
2023-05-10T09:56:37.957Z,30.85
2023-05-10T09:59:06.305Z,29.32
2023-05-10T10:01:34.803Z,29.80
2023-05-10T10:04:06.105Z,28.70
2023-05-10T10:06:40.357Z,29.49
2023-05-10T10:09:08.449Z,29.95
2023-05-10T10:11:36.796Z,28.47
2023-05-10T10:14:03.738Z,29.91
2023-05-10T10:16:31.420Z,28.27
2023-05-10T10:18:58.868Z,27.82
2023-05-10T10:21:26.428Z,28.14
2023-05-10T10:23:53.569Z,28.70
2023-05-10T10:26:22.148Z,28.70
2023-05-10T10:29:30.872Z,29.35
2023-05-10T10:32:21.345Z,28.92
2023-05-10T10:34:48.931Z,28.66
2023-05-10T10:37:15.875Z,29.20
2023-05-10T10:39:42.818Z,29.53
2023-05-10T10:42:09.912Z,28.49
2023-05-10T10:44:38.838Z,28.38
2023-05-10T10:47:24.968Z,28.57
2023-05-10T10:50:04.395Z,29.58
2023-05-10T10:52:33.485Z,28.28
2023-05-10T10:55:10.879Z,27.83
2023-05-10T10:57:50.309Z,30.35
2023-05-10T11:00:27.471Z,29.67
2023-05-10T11:02:56.631Z,30.34
2023-05-10T11:05:36.759Z,30.17
2023-05-10T11:08:28.170Z,28.71
2023-05-10T11:11:01.050Z,27.09
2023-05-10T11:13:30.550Z,27.62
2023-05-10T11:15:59.308Z,29.29
2023-05-10T11:18:26.215Z,29.41
2023-05-10T11:21:00.487Z,28.85
2023-05-10T11:23:40.349Z,27.16
2023-05-10T11:26:12.033Z,28.30
2023-05-10T11:28:43.349Z,28.31
2023-05-10T11:31:10.723Z,30.30
2023-05-10T11:33:48.907Z,29.61
2023-05-10T11:36:18.120Z,30.15
2023-05-10T11:38:45.682Z,30.19
2023-05-10T11:41:13.953Z,28.89
2023-05-10T11:43:41.106Z,28.44
2023-05-10T11:46:10.768Z,30.02
2023-05-10T11:48:42.127Z,30.12
2023-05-10T11:51:10.533Z,31.16
2023-05-10T11:53:38.604Z,32.50
2023-05-10T11:56:08.122Z,32.64
2023-05-10T11:58:36.586Z,32.19
2023-05-10T12:01:04.860Z,31.26
2023-05-10T12:03:32.154Z,32.50
2023-05-10T12:06:01.087Z,33.68
2023-05-10T12:08:31.428Z,35.49
2023-05-10T12:11:10.871Z,33.97
2023-05-10T12:13:42.337Z,33.26
2023-05-10T12:16:19.985Z,33.16
2023-05-10T12:18:54.057Z,33.39
2023-05-10T12:21:22.001Z,33.22
2023-05-10T12:23:54.992Z,32.83
2023-05-10T12:26:23.771Z,32.84
2023-05-10T12:28:50.722Z,32.59
2023-05-10T12:31:17.606Z,33.42
2023-05-10T12:33:45.733Z,33.33
2023-05-10T12:36:16.371Z,32.37
2023-05-10T12:38:45.097Z,33.73
2023-05-10T12:41:17.356Z,33.97
2023-05-10T12:43:48.664Z,34.28
2023-05-10T12:46:18.264Z,33.39
2023-05-10T12:48:46.867Z,33.30
2023-05-10T12:51:16.053Z,34.81
2023-05-10T12:53:45.634Z,33.56
2023-05-10T12:56:13.630Z,33.24
2023-05-10T12:58:41.375Z,32.59
2023-05-10T13:01:08.981Z,32.18
2023-05-10T13:03:36.617Z,31.10
2023-05-10T13:06:06.322Z,31.85
2023-05-10T13:08:34.170Z,31.63
2023-05-10T13:11:02.462Z,32.20
2023-05-10T13:13:29.306Z,32.01
2023-05-10T13:15:56.045Z,31.92
2023-05-10T13:18:22.871Z,32.36
2023-05-10T13:20:50.241Z,32.08
2023-05-10T13:23:17.086Z,31.84
2023-05-10T13:25:43.928Z,30.85
2023-05-10T13:28:10.688Z,31.10
2023-05-10T13:30:37.504Z,30.98
2023-05-10T13:33:04.518Z,31.39
2023-05-10T13:35:31.402Z,30.73
2023-05-10T13:37:58.446Z,31.16
2023-05-10T13:40:25.490Z,31.96
2023-05-10T13:42:53.461Z,31.32
2023-05-10T13:45:20.375Z,32.54
2023-05-10T13:47:47.716Z,31.73
2023-05-10T13:50:14.704Z,31.74
2023-05-10T13:52:41.569Z,31.25
2023-05-10T13:55:09.107Z,31.49
2023-05-10T13:57:39.123Z,30.83
2023-05-10T14:00:06.933Z,30.34
2023-05-10T14:02:34.950Z,30.90
2023-05-10T14:05:01.907Z,30.06
2023-05-10T14:07:28.643Z,31.10
2023-05-10T14:09:55.485Z,30.46
2023-05-10T14:12:22.439Z,31.89
2023-05-10T14:14:49.374Z,31.74
2023-05-10T14:17:16.626Z,31.60
2023-05-10T14:19:43.675Z,32.58
2023-05-10T14:22:10.724Z,30.56
2023-05-10T14:24:38.588Z,30.85
2023-05-10T14:27:06.349Z,31.31
2023-05-10T14:29:33.500Z,31.90
2023-05-10T14:32:00.687Z,30.63
2023-05-10T14:34:27.492Z,31.35
2023-05-10T14:36:54.345Z,31.16
2023-05-10T14:39:21.876Z,31.54
2023-05-10T14:41:49.147Z,31.86
2023-05-10T14:44:15.987Z,32.44
2023-05-10T14:46:43.145Z,34.13
2023-05-10T14:49:09.982Z,33.74
2023-05-10T14:51:37.433Z,33.56
2023-05-10T14:54:04.387Z,33.65
2023-05-10T14:56:31.631Z,33.25
2023-05-10T14:58:58.484Z,32.52
2023-05-10T15:01:25.901Z,33.66
2023-05-10T15:03:53.435Z,32.59
2023-05-10T15:06:30.680Z,33.07
2023-05-10T15:08:57.514Z,33.34
2023-05-10T15:11:24.456Z,33.23
2023-05-10T15:13:51.202Z,33.24
2023-05-10T15:16:18.126Z,33.39
2023-05-10T15:18:45.379Z,33.48
2023-05-10T15:21:12.539Z,34.16
2023-05-10T15:23:39.488Z,33.87
2023-05-10T15:26:06.428Z,34.32
2023-05-10T15:28:34.282Z,34.47
2023-05-10T15:31:01.473Z,34.64
2023-05-10T15:33:29.208Z,37.29
2023-05-10T15:35:56.167Z,38.66
2023-05-10T15:38:23.105Z,38.08
2023-05-10T15:40:49.966Z,37.89
2023-05-10T15:43:16.788Z,37.99
2023-05-10T15:45:43.730Z,38.36
2023-05-10T15:48:10.670Z,39.50
2023-05-10T15:50:37.724Z,38.69
2023-05-10T15:53:04.567Z,38.37
2023-05-10T15:55:31.823Z,38.64
2023-05-10T15:57:58.663Z,38.61
2023-05-10T16:00:25.514Z,38.44
2023-05-10T16:02:53.567Z,38.21
2023-05-10T16:05:20.668Z,38.28
2023-05-10T16:07:48.694Z,38.37
2023-05-10T16:10:15.856Z,38.54
2023-05-10T16:12:42.804Z,38.50
2023-05-10T16:15:10.250Z,38.95
2023-05-10T16:17:37.147Z,38.35
2023-05-10T16:20:05.470Z,38.59
2023-05-10T16:22:32.406Z,38.70
2023-05-10T16:24:59.565Z,40.06
2023-05-10T16:27:29.495Z,40.27
2023-05-10T16:29:56.215Z,40.53
2023-05-10T16:32:23.239Z,41.69
2023-05-10T16:34:50.113Z,43.48
2023-05-10T16:37:17.047Z,44.18
2023-05-10T16:39:43.989Z,43.05
2023-05-10T16:42:11.012Z,43.27
2023-05-10T16:44:38.084Z,44.83
2023-05-10T16:47:04.956Z,45.33
2023-05-10T16:49:31.769Z,46.40
2023-05-10T16:51:59.338Z,46.76
2023-05-10T16:54:26.397Z,46.98
2023-05-10T16:56:54.039Z,46.39
2023-05-10T16:59:20.952Z,48.42
2023-05-10T17:01:47.834Z,49.27
2023-05-10T17:04:16.143Z,48.78
2023-05-10T17:06:43.395Z,48.87
2023-05-10T17:09:11.424Z,49.27
2023-05-10T17:11:38.782Z,50.67
2023-05-10T17:14:05.729Z,51.75
2023-05-10T17:16:32.624Z,51.55
2023-05-10T17:18:59.569Z,50.53
2023-05-10T17:21:26.970Z,52.19
2023-05-10T17:23:53.810Z,53.27
2023-05-10T17:26:22.300Z,54.05
2023-05-10T17:28:50.327Z,54.67
2023-05-10T17:31:17.954Z,54.70
2023-05-10T17:33:44.771Z,53.56
2023-05-10T17:36:12.219Z,53.69
2023-05-10T17:38:38.973Z,56.40
2023-05-10T17:41:06.009Z,55.32
2023-05-10T17:43:32.851Z,55.38
2023-05-10T17:45:59.732Z,56.40
2023-05-10T17:48:26.637Z,57.73
2023-05-10T17:50:53.597Z,56.65
2023-05-10T17:53:20.631Z,57.03
2023-05-10T17:55:47.670Z,58.05
2023-05-10T17:58:14.827Z,57.38
2023-05-10T18:00:41.660Z,57.30
2023-05-10T18:03:08.479Z,57.71
2023-05-10T18:05:38.754Z,57.23
2023-05-10T18:08:06.795Z,57.50
2023-05-10T18:10:33.738Z,58.02
2023-05-10T18:13:01.925Z,58.37
2023-05-10T18:15:28.757Z,58.33
2023-05-10T18:17:56.266Z,59.71
2023-05-10T18:20:23.200Z,59.78
2023-05-10T18:22:50.104Z,59.74
2023-05-10T18:25:17.565Z,61.09
2023-05-10T18:27:44.723Z,61.06
2023-05-10T18:30:12.633Z,63.73
2023-05-10T18:32:40.474Z,65.10
2023-05-10T18:35:08.109Z,67.00
2023-05-10T18:37:35.969Z,68.66
2023-05-10T18:40:04.450Z,69.52
2023-05-10T18:42:31.495Z,67.84
2023-05-10T18:44:58.445Z,64.84
2023-05-10T18:47:26.223Z,65.06
2023-05-10T18:49:53.150Z,64.32
2023-05-10T18:52:20.002Z,63.80
2023-05-10T18:54:47.349Z,63.56
2023-05-10T18:57:14.184Z,64.06
2023-05-10T18:59:41.236Z,64.96
2023-05-10T19:02:08.202Z,65.27
2023-05-10T19:04:35.249Z,65.51
2023-05-10T19:07:02.996Z,65.52
2023-05-10T19:09:30.154Z,66.26
2023-05-10T19:11:57.088Z,65.95
2023-05-10T19:14:24.954Z,65.65
2023-05-10T19:16:53.589Z,66.60
2023-05-10T19:19:20.899Z,67.27
2023-05-10T19:21:47.838Z,67.16
2023-05-10T19:24:14.882Z,67.57
2023-05-10T19:26:41.744Z,67.31
2023-05-10T19:29:08.989Z,67.57
2023-05-10T19:31:35.875Z,68.51
2023-05-10T19:34:05.985Z,69.90
2023-05-10T19:36:32.877Z,69.66
2023-05-10T19:38:59.822Z,70.29
2023-05-10T19:41:26.786Z,71.34
2023-05-10T19:43:53.814Z,73.55
2023-05-10T19:46:20.660Z,71.20
2023-05-10T19:48:47.606Z,71.36
2023-05-10T19:51:15.275Z,71.26
2023-05-10T19:53:44.224Z,71.36
2023-05-10T19:56:12.121Z,71.68
2023-05-10T19:58:39.900Z,72.16
2023-05-10T20:01:07.163Z,71.95
2023-05-10T20:03:35.626Z,71.99
2023-05-10T20:06:03.386Z,72.21
2023-05-10T20:08:30.534Z,71.94
2023-05-10T20:10:58.616Z,71.94
2023-05-10T20:13:25.765Z,72.43
2023-05-10T20:15:59.265Z,74.65
2023-05-10T20:18:26.787Z,72.98
2023-05-10T20:20:54.788Z,71.85
2023-05-10T20:23:22.484Z,71.96
2023-05-10T20:25:49.704Z,71.63
2023-05-10T20:28:26.707Z,71.32
2023-05-10T20:30:54.764Z,70.60
2023-05-10T20:33:22.408Z,71.64
2023-05-10T20:35:50.815Z,72.72
2023-05-10T20:38:17.831Z,71.88
2023-05-10T20:40:44.997Z,71.50
2023-05-10T20:43:12.134Z,72.66
2023-05-10T20:45:39.080Z,70.80
2023-05-10T20:48:06.281Z,70.89
2023-05-10T20:50:33.272Z,71.35
2023-05-10T20:53:00.726Z,71.62
2023-05-10T20:55:28.113Z,72.58
2023-05-10T20:57:55.042Z,72.62
2023-05-10T21:00:21.792Z,74.75
2023-05-10T21:02:48.766Z,74.27
2023-05-10T21:05:17.112Z,76.85
2023-05-10T21:07:44.035Z,78.24
2023-05-10T21:10:11.496Z,77.43
2023-05-10T21:12:38.747Z,77.13
2023-05-10T21:15:06.302Z,76.98
2023-05-10T21:17:33.106Z,78.81
2023-05-10T21:19:59.897Z,77.49
2023-05-10T21:22:26.726Z,78.30
2023-05-10T21:24:53.471Z,79.44
2023-05-10T21:27:20.535Z,77.49
2023-05-10T21:29:47.373Z,77.22
2023-05-10T21:32:14.414Z,80.09
2023-05-10T21:34:41.358Z,80.76
2023-05-10T21:37:08.602Z,82.36
2023-05-10T21:39:35.551Z,82.76
2023-05-10T21:42:03.141Z,82.78
2023-05-10T21:44:31.179Z,81.40
2023-05-10T21:46:57.918Z,81.05
2023-05-10T21:49:24.971Z,79.52
2023-05-10T21:51:51.811Z,82.18
2023-05-10T21:54:18.756Z,82.82
2023-05-10T21:56:45.493Z,82.12
2023-05-10T21:59:13.127Z,80.62
2023-05-10T22:01:40.907Z,80.08
2023-05-10T22:04:07.860Z,82.12
2023-05-10T22:06:35.111Z,82.40
2023-05-10T22:09:02.059Z,82.58
2023-05-10T22:11:28.899Z,82.18
2023-05-10T22:13:55.847Z,82.55
2023-05-10T22:16:22.738Z,82.68
2023-05-10T22:18:50.092Z,82.88
2023-05-10T22:21:17.192Z,83.37
2023-05-10T22:23:44.034Z,82.25
2023-05-10T22:26:11.375Z,82.41
2023-05-10T22:28:38.174Z,82.17
2023-05-10T22:31:10.116Z,82.18
2023-05-10T22:33:37.139Z,80.25
2023-05-10T22:36:04.801Z,80.38
2023-05-10T22:38:31.739Z,79.96
2023-05-10T22:40:58.590Z,80.16
2023-05-10T22:43:25.419Z,82.16
2023-05-10T22:45:52.681Z,82.66
2023-05-10T22:48:20.445Z,82.47
2023-05-10T22:50:47.388Z,83.01
2023-05-10T22:53:14.126Z,82.62
2023-05-10T22:55:41.384Z,81.62
2023-05-10T22:58:09.038Z,81.38
2023-05-10T23:00:36.296Z,82.68
2023-05-10T23:03:04.500Z,84.46
2023-05-10T23:05:31.611Z,84.76
2023-05-10T23:07:58.467Z,83.98
2023-05-10T23:10:25.305Z,84.00
2023-05-10T23:12:52.170Z,83.68
2023-05-10T23:15:18.990Z,84.53
2023-05-10T23:17:46.118Z,85.05
2023-05-10T23:20:13.283Z,85.07
2023-05-10T23:22:40.235Z,84.84
2023-05-10T23:25:07.887Z,84.69
2023-05-10T23:27:34.736Z,84.62
2023-05-10T23:30:01.702Z,84.62
2023-05-10T23:32:28.544Z,84.61
2023-05-10T23:34:55.380Z,86.42
2023-05-10T23:37:22.202Z,86.81
2023-05-10T23:39:49.049Z,86.20
2023-05-10T23:42:15.990Z,85.93
2023-05-10T23:44:42.818Z,85.88
2023-05-10T23:47:09.575Z,85.14
2023-05-10T23:49:37.542Z,84.82
2023-05-10T23:52:04.284Z,85.59
2023-05-10T23:54:31.020Z,85.01
2023-05-10T23:56:57.765Z,86.39
2023-05-10T23:59:24.610Z,86.38
